x

Lake St Clair (45147) Wave Buoy

12:00am - Mon 29th Aug 2016 All times are CDT. -5 hours from GMT.

  • Sig Wave height 1.0ft
  • Peak Period 2s
  • Wind
    9mph, 11mph gusts
  • Sea Temp 74°f
  • Air Temp 73°f
  • Sea Pressure 1022.9mb
  • Lake St Clair
  • Lake St Clair

More Historic Weather Station data

Upgrade to MSW Pro to gain access to the past 30 days of data for over 8000 Wavebouys and Weather Stations around the globe.

Join Pro

Comparision Forecast

View Surf forecast
   
Mon 08/29 12:00am 1ft 2s 9 11 mph 1022.9mb 74f 73f
Sun 08/28 11:00pm 1.3ft 2s 13 16 mph 1022.7mb 74f 73f
10:00pm 0.7ft 2s 16 18 mph 1021.8mb 74f 74f
9:00pm 0.7ft 2s 2
mph
1021.1mb 74f 75f
8:00pm 0.7ft 2s 4
mph
1020.3mb 74f 76f
7:00pm 0.7ft 2s 4 7 mph 1020.1mb 74f 76f
6:00pm 1ft 2s 4 7 mph 1020.2mb 74f 76f
5:00pm 1.3ft 2s 9
mph
1020.4mb 74f 76f
4:00pm 0.7ft 2s 13 16 mph 1021mb 74f 76f
3:00pm 0.7ft 2s 7
mph
1021.1mb 74f 77f
2:00pm 0.7ft 2s 2
mph
1021.4mb 74f 77f
1:00pm 0.7ft 2s 4
mph
1021.7mb 74f 76f
12:00pm 0.7ft 2s 2 4 mph 1021.5mb 74f 75f
11:00am 0.7ft 2s 4 7 mph 1021.4mb 73f 74f
10:00am 0.7ft 2s 9
mph
1021.4mb 73f 72f
9:00am 0.7ft 2s 7 9 mph 1021.2mb 73f 72f
8:00am 0.7ft 2s 7 9 mph 1020.7mb 73f 72f
7:00am 0.7ft 2s 7 9 mph 1020.6mb 73f 72f
6:00am 0.7ft 2s 4 7 mph 1020.1mb 73f 72f
5:00am 0.3ft 2s 7 9 mph 1019.9mb 73f 71f
4:00am 0.3ft 2s 4 7 mph 1019.7mb 73f 73f
3:00am 0.3ft 2s 4
mph
1019.4mb 73f 73f
2:00am 0.7ft 2s 2 4 mph 1019.1mb 73f 73f
1:00am 1ft 2s 4 7 mph 1019.6mb 73f 73f
12:00am 1.3ft 2s 7 9 mph 1019.5mb 74f 74f
Sat 08/27 11:00pm 1.3ft 3s 13 16 mph 1018.8mb 74f 74f
10:00pm 1.3ft 3s 13 18 mph 1018.9mb 74f 74f
9:00pm 1.3ft 3s 16 18 mph 1018.9mb 74f 73f
8:00pm 1.3ft 3s 16 18 mph 1018.2mb 74f 73f
7:00pm 1.3ft 2s 16 18 mph 1017.8mb 74f 74f
6:00pm 1.3ft 2s 16 18 mph 1018.4mb 74f 73f
5:00pm 1.3ft 3s 13 16 mph 1019.5mb 74f 71f
4:00pm 1.6ft 3s 13 22 mph 1020.1mb 75f 72f
3:00pm 1ft 2s 7 9 mph 1018.5mb 75f 78f
2:00pm 1ft 3s 7 9 mph 1018.4mb 75f 78f
1:00pm 1.3ft 3s 9 11 mph 1019.1mb 74f 78f
12:00pm 1.3ft 3s 13 16 mph 1019.6mb 74f 77f
11:00am 1.3ft 3s 13 16 mph 1020.3mb 74f 77f
10:00am 1.3ft 3s 16 18 mph 1020.5mb 75f 76f
9:00am 1ft 2s 13 16 mph 1020.4mb 75f 75f
8:00am 1ft 3s 11 13 mph 1020.4mb 75f 75f
7:00am 1ft 2s 11 13 mph 1020.4mb 75f 75f
6:00am 0.7ft 2s 9 11 mph 1020.2mb 75f 74f
5:00am 0.3ft 2s 7 9 mph 1020.3mb 75f 74f
4:00am 0.3ft 2s 4 7 mph 1020.1mb 75f 75f
3:00am 0.3ft 2s 7
mph
1020.2mb 75f 74f
2:00am 0.3ft 2s 4 7 mph 1019.9mb 75f 74f
1:00am 0.3ft 2s 2
mph
1019.8mb 75f 75f
12:00am 0.3ft 2s 4
mph
1020.1mb 76f 75f
Fri 08/26 11:00pm 0.7ft 2s 7 9 mph 1020.3mb 76f 76f
10:00pm 0.7ft 2s 4
mph
1020.1mb 76f 76f
9:00pm 0.7ft 2s 4 7 mph 1019.5mb 76f 77f
8:00pm 0.7ft 2s 4 7 mph 1018.8mb 76f 78f
7:00pm 0.3ft 2s 4 7 mph 1018.9mb 77f 80f
6:00pm 0.3ft 2s 4
mph
1018.5mb 77f 79f
5:00pm 0.3ft 2s 4 7 mph 1018.5mb 77f 79f
4:00pm 0.3ft 2s 4
mph
1018.8mb 77f 78f
3:00pm 0.3ft 3s 4
mph
1019.2mb 76f 78f
2:00pm 0.3ft 2s 4
mph
1019.6mb 76f 77f
1:00pm 0.3ft 2s 4
mph
1019.8mb 75f 75f
12:00pm 0.7ft 2s 4
mph
1020.2mb 75f 73f
11:00am 0.7ft 2s 2 4 mph 1020.3mb 74f 73f
10:00am 1ft 2s 4 7 mph 1020.1mb 74f 72f
9:00am 1ft 3s 9 11 mph 1019.5mb 74f 71f
8:00am 1ft 2s 9 11 mph 1018.7mb 74f 71f
7:00am 1ft 2s 11 13 mph 1018.4mb 74f 71f
6:00am 1.3ft 2s 11 13 mph 1018mb 74f 71f
5:00am 1.3ft 3s 13 16 mph 1017.8mb 74f 72f
3:00am 1.3ft 3s 13 16 mph 1017.1mb 74f 73f
2:00am 1.3ft 3s 13 16 mph 1016.5mb 74f 74f
1:00am 1.3ft 3s 13 16 mph 1016.1mb 74f 75f
12:00am 1.3ft 2s 13 16 mph 1015.5mb 74f 76f
Thu 08/25 11:00pm 0.7ft 2s 9
mph
1015.3mb 74f 76f
10:00pm 0.7ft 2s 9 11 mph 1014.9mb 74f 77f
9:00pm 1ft 3s 9
mph
1014.6mb 74f 77f
8:00pm 1.3ft 3s 9
mph
1013.9mb 74f 77f
7:00pm 1.6ft 3s 13 16 mph 1013.4mb 74f 80f
6:00pm 1.3ft 3s 13 18 mph 1013mb 74f 80f
5:00pm 1ft 3s 9 13 mph 1012.8mb 74f 80f
4:00pm 1.3ft 3s 18 25 mph 1013mb 74f 79f
3:00pm 1ft 2s 11 13 mph 1013mb 74f 80f
2:00pm 1ft 2s 9 11 mph 1013.6mb 74f 78f
1:00pm 0.3ft 2s 13
mph
1013.9mb 74f 78f
12:00pm 0.3ft 2s 9
mph
1014.2mb 74f 77f
11:00am 0.3ft 2s 4 7 mph 1014.3mb 73f 75f
10:00am 0.7ft 2s 4
mph
1013.8mb 73f 75f
9:00am 0.7ft 2s 7 9 mph 1014.5mb 73f 74f
8:00am 0.7ft 2s 9 11 mph 1014.6mb 73f 74f
7:00am 1ft 2s 9
mph
1014.3mb 73f 74f